Flight Track Log - Related Links

Times and Time Zones

All times are in EDT time to prevent confusion due to time zone crossing. See the N693PD flight status page for this flight to view local times or setup timezone preferences in your user account.

Time Position Orientation Groundspeed Altitude Reporting Facility
EDT Latitude Longitude Course Direction KTS MPH feet Rate Location/Type
Sun 09:33:47 PM 30.5533 -98.2608 72° East 133 153 5,600  Level Houston Center
Sun 09:34:48 PM 30.5672 -98.2169 70° East 141 162 7,300 1,525 Climbing Houston Center
Sun 09:35:49 PM 30.5783 -98.1731 74° East 140 161 8,700 1,377 Climbing Houston Center
Sun 09:36:50 PM 30.5933 -98.1228 71° East 156 180 10,100 1,328 Climbing Houston Center
Sun 09:37:51 PM 30.6078 -98.0706 72° East 167 192 11,400 1,279 Climbing Houston Center
Sun 09:38:52 PM 30.6225 -98.0144 73° East 177 204 12,700 1,279 Climbing Houston Center
Sun 09:39:00 PM 30.6665 -97.8119 72° East  Level FlightAware Approximate
Sun 09:39:53 PM 30.6389 -97.9564 72° East 184 212 14,000  Level Houston Center
Sun 09:40:55 PM 30.6553 -97.8981 72° East 187 215 15,200 1,122 Climbing Houston Center
Sun 09:41:56 PM 30.6719 -97.8378 72° East 194 223 16,300 1,082 Climbing Houston Center
Sun 09:42:57 PM 30.6883 -97.7764 73° East 197 227 17,400 934 Climbing Houston Center
Sun 09:43:58 PM 30.7058 -97.7139 72° East 203 234 18,200 787 Climbing Houston Center
Sun 09:44:59 PM 30.7242 -97.6478 72° East 211 243 19,000 885 Climbing Houston Center
Sun 09:46:00 PM 30.7419 -97.5806 73° East 215 247 20,000 885 Climbing Houston Center
Sun 09:47:01 PM 30.7597 -97.5139 73° East 215 247 20,800 787 Climbing Houston Center
Sun 09:48:02 PM 30.7786 -97.4461 72° East 218 251 21,600 787 Climbing Houston Center
Sun 09:49:03 PM 30.8003 -97.3647 73° East 223 257 22,400 689 Climbing Houston Center
Sun 09:50:04 PM 30.8200 -97.2922 72° East 234 269 23,000 541 Climbing Houston Center
Sun 09:51:05 PM 30.8403 -97.2181 72° East 241 277 23,500 488 Climbing Houston Center
Sun 09:52:07 PM 30.8614 -97.1422 72° East 247 284 24,000 488 Climbing Houston Center
Sun 09:53:08 PM 30.8831 -97.0633 72° East 254 292 24,500 492 Climbing Houston Center
Sun 09:54:09 PM 30.9047 -96.9839 72° East 256 295 25,000 590 Climbing Houston Center
Sun 09:55:10 PM 30.9253 -96.9058 73° East 251 289 25,700 541 Climbing Houston Center
Sun 09:56:11 PM 30.9478 -96.8236 72° East 262 302 26,100 443 Climbing Houston Center
Sun 09:57:12 PM 30.9689 -96.7397 74° East 267 307 26,600 443 Climbing Houston Center
Sun 09:58:13 PM 30.9919 -96.6550 72° East 273 314 27,000 197 Climbing Houston Center
Sun 09:59:14 PM 31.0153 -96.5669 73° East 284 327 27,000  Level Houston Center
Sun 10:00:16 PM 31.0397 -96.4725 73° East 299 344 27,000  Level Houston Center
Sun 10:01:17 PM 31.0661 -96.3758 72° East 308 354 27,000  Level Houston Center
Sun 10:02:18 PM 31.0958 -96.2631 73° East 310 357 27,000  Level Houston Center
Sun 10:03:19 PM 31.1211 -96.1647 73° East 315 362 27,000  Level Houston Center
Sun 10:04:20 PM 31.1453 -96.0683 74° East 310 357 27,000  Level Houston Center
Sun 10:05:21 PM 31.1725 -95.9675 72° East 311 358 27,000  Level Houston Center
Sun 10:06:22 PM 31.1969 -95.8708 74° East 311 358 27,000  Level Houston Center
Sun 10:07:23 PM 31.2225 -95.7725 73° East 315 362 27,000  Level Houston Center
Sun 10:07:58 PM 31.2356 -95.7247 72° East 310 357 27,000  Level Fort Worth Center
Sun 10:08:58 PM 31.2592 -95.6247 75° East 310 357 27,000  Level Fort Worth Center
Sun 10:09:25 PM 31.2725 -95.5794 71° East 309 356 27,000  Level Houston Center
Sun 10:10:27 PM 31.2978 -95.4808 73° East 314 361 27,000  Level Houston Center
Sun 10:11:28 PM 31.3222 -95.3833 74° East 313 360 27,000  Level Houston Center
Sun 10:11:58 PM 31.3381 -95.3267 72° East 304 350 27,000  Level Fort Worth Center
Sun 10:12:58 PM 31.3594 -95.2311 75° East 304 350 27,000  Level Fort Worth Center
Sun 10:13:58 PM 31.3847 -95.1356 73° East 299 344 27,000  Level Fort Worth Center
Sun 10:14:58 PM 31.4103 -95.0353 73° East 304 350 27,000  Level Fort Worth Center
Sun 10:15:58 PM 31.4336 -94.9469 73° East 304 350 27,000  Level Fort Worth Center
Sun 10:16:58 PM 31.4586 -94.8489 73° East 304 350 27,000  Level Fort Worth Center
Sun 10:17:34 PM 31.4706 -94.7894 77° East 317 365 27,000  Level Houston Center
Sun 10:18:35 PM 31.4950 -94.6903 74° East 313 360 27,000  Level Houston Center
Sun 10:19:36 PM 31.5192 -94.5917 74° East 312 359 27,000  Level Houston Center
Sun 10:19:58 PM 31.5294 -94.5522 73° East 304 350 27,000  Level Fort Worth Center
Sun 10:20:58 PM 31.5544 -94.4539 73° East 304 350 27,000  Level Fort Worth Center
Sun 10:21:58 PM 31.5792 -94.3531 74° East 304 350 27,000  Level Fort Worth Center
Sun 10:22:58 PM 31.6019 -94.2572 74° East 304 350 27,000  Level Fort Worth Center
Sun 10:23:58 PM 31.6244 -94.1589 75° East 304 350 27,000  Level Fort Worth Center
Sun 10:24:58 PM 31.6469 -94.0628 75° East 304 350 27,000  Level Fort Worth Center
Sun 10:25:58 PM 31.6694 -93.9669 75° East 304 350 27,000  Level Fort Worth Center
Sun 10:26:58 PM 31.6939 -93.8683 74° East 304 350 27,000  Level Fort Worth Center
Sun 10:27:58 PM 31.7181 -93.7697 74° East 304 350 27,000  Level Fort Worth Center
Sun 10:30:00 PM 31.7647 -93.5756 74° East 310 357 27,000  Level Houston Center
Sun 10:31:01 PM 31.7875 -93.4767 75° East 312 359 27,000  Level Houston Center
Sun 10:32:02 PM 31.8158 -93.3589 74° East 311 358 27,000  Level Houston Center
Sun 10:33:03 PM 31.8392 -93.2603 74° East 312 359 27,000  Level Houston Center
Sun 10:34:04 PM 31.8617 -93.1617 75° East 311 358 27,000  Level Houston Center
Sun 10:35:05 PM 31.8856 -93.0625 74° East 313 360 27,000  Level Houston Center
Sun 10:36:06 PM 31.9061 -92.9728 75° East 310 357 27,000  Level Houston Center
Sun 10:37:07 PM 31.9286 -92.8731 75° East 314 361 27,000  Level Houston Center
Sun 10:38:08 PM 31.9517 -92.7733 75° East 315 362 27,000  Level Houston Center
Sun 10:38:33 PM 31.9611 -92.7347 74° East 313 360 27,000  Level Houston Center
Sun 10:39:34 PM 31.9867 -92.6353 73° East 316 364 27,000  Level Houston Center
Sun 10:40:35 PM 32.0233 -92.5214 69° East 311 358 27,000  Level Houston Center
Sun 10:41:36 PM 32.0544 -92.4250 69° East 313 360 27,000  Level Houston Center
Sun 10:42:37 PM 32.0853 -92.3292 69° East 313 360 27,000  Level Houston Center
Sun 10:43:38 PM 32.1161 -92.2336 69° East 312 359 27,000  Level Houston Center
Sun 10:44:39 PM 32.1475 -92.1386 69° East 312 359 27,000  Level Houston Center
Sun 10:45:40 PM 32.1778 -92.0425 70° East 313 360 27,000  Level Houston Center
Sun 10:46:41 PM 32.2092 -91.9350 71° East 311 358 27,000  Level Houston Center
Sun 10:47:42 PM 32.2406 -91.8378 69° East 317 365 27,000  Level Houston Center
Sun 10:48:43 PM 32.2708 -91.7419 69° East 313 360 27,000  Level Houston Center
Sun 10:49:44 PM 32.3008 -91.6453 70° East 313 360 27,000  Level Houston Center
Sun 10:50:45 PM 32.3308 -91.5478 70° East 314 361 27,000  Level Houston Center
Sun 10:51:46 PM 32.3606 -91.4503 70° East 316 364 27,000  Level Houston Center
Sun 10:52:32 PM 32.3861 -91.3783 67° East 308 354 27,000  Level Memphis Center
Sun 10:53:32 PM 32.4117 -91.2800 73° East 308 354 27,000  Level Memphis Center
Sun 10:54:32 PM 32.4417 -91.1819 70° East 308 354 27,000  Level Memphis Center
Sun 10:55:32 PM 32.4736 -91.0814 69° East 308 354 27,000  Level Memphis Center
Sun 10:56:32 PM 32.5033 -90.9856 70° East 308 354 27,000  Level Memphis Center
Sun 10:57:32 PM 32.5353 -90.8747 71° East 313 360 27,000  Level Memphis Center
Sun 10:58:32 PM 32.5669 -90.7789 69° East 313 360 27,000  Level Memphis Center
Sun 10:59:32 PM 32.5983 -90.6803 69° East 313 360 27,000  Level Memphis Center
Sun 11:00:32 PM 32.6278 -90.5817 70° East 308 354 27,000  Level Memphis Center
Sun 11:01:32 PM 32.6553 -90.4831 72° East 308 354 27,000  Level Memphis Center
Sun 11:02:32 PM 32.6867 -90.3819 70° East 308 354 27,000  Level Memphis Center
Sun 11:03:32 PM 32.7158 -90.2831 71° East 308 354 27,000  Level Memphis Center
Sun 11:04:32 PM 32.7450 -90.1844 71° East 308 354 27,000  Level Memphis Center
Sun 11:05:32 PM 32.7739 -90.0856 71° East 308 354 27,000  Level Memphis Center
Sun 11:06:32 PM 32.8028 -89.9842 71° East 308 354 27,000  Level Memphis Center
Sun 11:07:32 PM 32.8339 -89.8850 70° East 308 354 27,000  Level Memphis Center
Sun 11:08:32 PM 32.8628 -89.7908 70° East 315 362 27,000  Level Memphis Center
Sun 11:09:32 PM 32.8914 -89.6869 72° East 320 368 27,000  Level Memphis Center
Sun 11:10:32 PM 32.9222 -89.5875 70° East 320 368 27,000  Level Memphis Center
Sun 11:11:32 PM 32.9528 -89.4858 70° East 320 368 27,000  Level Memphis Center
Sun 11:12:32 PM 32.9811 -89.3839 72° East 325 374 27,000  Level Memphis Center
Sun 11:13:32 PM 33.0117 -89.2819 70° East 325 374 27,000  Level Memphis Center
Sun 11:14:32 PM 33.0400 -89.1825 71° East 325 374 27,000  Level Memphis Center
Sun 11:15:32 PM 33.0703 -89.0781 71° East 325 374 27,000  Level Memphis Center
Sun 11:16:32 PM 33.0983 -88.9783 71° East 325 374 27,000  Level Memphis Center
Sun 11:17:32 PM 33.1286 -88.8764 70° East 325 374 27,000  Level Memphis Center
Sun 11:18:32 PM 33.1567 -88.7742 72° East 325 374 27,000  Level Memphis Center
Sun 11:19:32 PM 33.1906 -88.6592 71° East 325 374 27,000  Level Memphis Center
Sun 11:20:32 PM 33.2161 -88.5569 73° East 325 374 27,000  Level Memphis Center
Sun 11:21:32 PM 33.2503 -88.4544 68° East 325 374 27,000  Level Memphis Center
Sun 11:22:32 PM 33.2778 -88.3494 73° East 325 374 27,000  Level Memphis Center
Sun 11:23:32 PM 33.3031 -88.2469 74° East 325 374 27,000  Level Memphis Center
Sun 11:25:22 PM 33.3550 -88.0578 72° East 333 383 27,000  Level Atlanta Center
Sun 11:26:22 PM 33.3753 -87.9492 77° East 333 383 27,000  Level Atlanta Center
Sun 11:27:22 PM 33.3975 -87.8431 76° East 333 383 27,000  Level Atlanta Center
Sun 11:28:22 PM 33.4194 -87.7372 76° East 328 377 27,000  Level Atlanta Center
Sun 11:29:22 PM 33.4392 -87.6308 77° East 328 377 27,000  Level Atlanta Center
Sun 11:30:22 PM 33.4611 -87.5222 76° East 334 384 27,000  Level Atlanta Center
Sun 11:31:22 PM 33.4828 -87.4161 76° East 334 384 27,000  Level Atlanta Center
Sun 11:32:22 PM 33.5044 -87.3097 76° East 334 384 27,000  Level Atlanta Center
Sun 11:33:22 PM 33.5261 -87.2011 77° East 334 384 27,000 -300 Level Atlanta Center
Sun 11:34:22 PM 33.5478 -87.0922 77° East 334 384 26,400 -850 Descending Atlanta Center
Sun 11:35:22 PM 33.5694 -86.9733 78° East 339 390 25,300 -1,150 Descending Atlanta Center
Sun 11:36:22 PM 33.5908 -86.8642 77° East 344 396 24,100 -1,150 Descending Atlanta Center
Sun 11:37:22 PM 33.6142 -86.7528 76° East 344 396 23,000 -1,150 Descending Atlanta Center
Sun 11:38:22 PM 33.6353 -86.6436 77° East 339 390 21,800 -1,150 Descending Atlanta Center
Sun 11:39:22 PM 33.6542 -86.5369 78° East 332 382 20,700 -1,150 Descending Atlanta Center
Sun 11:40:22 PM 33.6750 -86.4278 77° East 332 382 19,500 -1,150 Descending Atlanta Center
Sun 11:41:22 PM 33.6981 -86.3208 75° East 332 382 18,400 -1,050 Descending Atlanta Center
Sun 11:42:22 PM 33.7164 -86.2214 77° East 327 376 17,400 -1,050 Descending Atlanta Center
Sun 11:43:22 PM 33.7369 -86.1172 77° East 320 368 16,300 -1,150 Descending Atlanta Center
Sun 11:44:22 PM 33.7575 -86.0203 76° East 313 360 15,100 -1,150 Descending Atlanta Center
Sun 11:45:22 PM 33.7736 -85.9231 79° East 302 348 14,000 -1,100 Descending Atlanta Center
Sun 11:47:22 PM 33.8075 -85.7464 77° East 284 327 11,800 -1,133 Descending Atlanta Center
Sun 11:48:22 PM 33.8233 -85.6567 78° East 278 320 10,600 -1,150 Descending Atlanta Center
Sun 11:49:22 PM 33.8411 -85.5644 77° East 278 320 9,500 -1,150 Descending Atlanta Center
Sun 11:50:22 PM 33.8589 -85.4772 76° East 278 320 8,300 -750 Descending Atlanta Center
Sun 11:51:22 PM 33.8725 -85.3900 79° East 278 320 8,000 -150 Descending Atlanta Center
Sun 11:52:22 PM 33.8900 -85.2950 77° East 272 313 8,000  Level Atlanta Center
Sun 11:53:22 PM 33.9056 -85.2078 78° East 272 313 8,000  Level Atlanta Center
Sun 11:54:22 PM 33.9211 -85.1203 78° East 266 306 8,000 -400 Level Atlanta Center
Sun 11:55:22 PM 33.9383 -85.0328 77° East 266 306 7,200 -1,100 Descending Atlanta Center
Sun 11:56:22 PM 33.9578 -84.9556 73° East 248 285 5,800 -700 Descending Atlanta Center
Sun 11:57:22 PM 33.9731 -84.8806 76° East 248 285 5,800  Level Atlanta Center
Mon 12:03:00 AM 33.9831 -84.7180 79° East  Level FlightAware Approximate
Mon 12:10:00 AM 34.0132 -84.5971 90° East  Level Estimated
Mon 12:11:00 AM 34.0132 -84.5971 90° East  Level Estimated
Mon 12:12:00 AM 34.0132 -84.5971 90° East  Level Estimated
Mon 12:13:00 AM 34.0132 -84.5971 90° East  Level Estimated
Mon 12:14:00 AM 34.0132 -84.5971 90° East  Level Estimated
Mon 12:15:00 AM 34.0132 -84.5971 90° East  Level Estimated
Mon 12:16:00 AM 34.0132 -84.5971 90° East  Level Estimated
Mon 12:17:00 AM 34.0132 -84.5971 90° East  Level Estimated

Login

Don't have an account? Register now (free) for customized features, flight alerts, and more!